sensor_id;sensor_type;location;lat;lon;timestamp;pressure;altitude;pressure_sealevel;temperature;humidity
48872;BME280;36154;51.674;7.824;2023-04-22T00:01:15;100106.44;;;20.77;48.15
48872;BME280;36154;51.674;7.824;2023-04-22T00:03:41;100098.66;;;20.77;48.11
48872;BME280;36154;51.674;7.824;2023-04-22T00:06:08;100094.34;;;20.77;48.11
48872;BME280;36154;51.674;7.824;2023-04-22T00:08:34;100097.75;;;20.78;48.02
48872;BME280;36154;51.674;7.824;2023-04-22T00:10:59;100085.72;;;20.77;48.10
48872;BME280;36154;51.674;7.824;2023-04-22T00:13:25;100090.06;;;20.76;48.07
48872;BME280;36154;51.674;7.824;2023-04-22T00:15:50;100097.75;;;20.78;48.02
48872;BME280;36154;51.674;7.824;2023-04-22T00:18:15;100093.47;;;20.77;47.98
48872;BME280;36154;51.674;7.824;2023-04-22T00:20:41;100094.34;;;20.77;47.97
48872;BME280;36154;51.674;7.824;2023-04-22T00:23:11;100085.72;;;20.77;47.98
48872;BME280;36154;51.674;7.824;2023-04-22T00:25:38;100088.31;;;20.77;48.05
48872;BME280;36154;51.674;7.824;2023-04-22T00:28:03;100090.88;;;20.77;48.07
48872;BME280;36154;51.674;7.824;2023-04-22T00:30:29;100092.59;;;20.78;47.98
48872;BME280;36154;51.674;7.824;2023-04-22T00:32:54;100095.19;;;20.78;48.02
48872;BME280;36154;51.674;7.824;2023-04-22T00:35:20;100086.56;;;20.77;48.06
48872;BME280;36154;51.674;7.824;2023-04-22T00:37:45;100085.72;;;20.77;48.01
48872;BME280;36154;51.674;7.824;2023-04-22T00:40:10;100083.13;;;20.77;48.05
48872;BME280;36154;51.674;7.824;2023-04-22T00:42:36;100085.72;;;20.77;47.96
48872;BME280;36154;51.674;7.824;2023-04-22T00:45:03;100087.41;;;20.78;47.93
48872;BME280;36154;51.674;7.824;2023-04-22T00:47:35;100089.22;;;20.76;48.11
48872;BME280;36154;51.674;7.824;2023-04-22T00:50:01;100086.56;;;20.77;48.10
48872;BME280;36154;51.674;7.824;2023-04-22T00:52:27;100090.88;;;20.77;48.01
48872;BME280;36154;51.674;7.824;2023-04-22T00:54:52;100090.88;;;20.77;48.43
48872;BME280;36154;51.674;7.824;2023-04-22T00:57:18;100090.88;;;20.77;47.97
48872;BME280;36154;51.674;7.824;2023-04-22T00:59:44;100090.00;;;20.78;48.12
48872;BME280;36154;51.674;7.824;2023-04-22T01:02:10;100093.41;;;20.78;48.05
48872;BME280;36154;51.674;7.824;2023-04-22T01:04:35;100087.41;;;20.78;47.99
48872;BME280;36154;51.674;7.824;2023-04-22T01:07:01;100085.72;;;20.77;48.00
48872;BME280;36154;51.674;7.824;2023-04-22T01:09:26;100087.41;;;20.78;47.95
48872;BME280;36154;51.674;7.824;2023-04-22T01:11:51;100089.16;;;20.77;48.07
48872;BME280;36154;51.674;7.824;2023-04-22T01:14:17;100093.41;;;20.78;48.00
48872;BME280;36154;51.674;7.824;2023-04-22T01:16:42;100084.88;;;20.76;48.07
48872;BME280;36154;51.674;7.824;2023-04-22T01:19:10;100083.13;;;20.77;48.11
48872;BME280;36154;51.674;7.824;2023-04-22T01:21:37;100078.88;;;20.76;48.00
48872;BME280;36154;51.674;7.824;2023-04-22T01:24:04;100084.88;;;20.76;48.01
48872;BME280;36154;51.674;7.824;2023-04-22T01:26:29;100081.41;;;20.77;48.04
48872;BME280;36154;51.674;7.824;2023-04-22T01:28:55;100078.03;;;20.75;48.05
48872;BME280;36154;51.674;7.824;2023-04-22T01:31:20;100080.53;;;20.77;48.01
48872;BME280;36154;51.674;7.824;2023-04-22T01:33:45;100073.69;;;20.76;48.16
48872;BME280;36154;51.674;7.824;2023-04-22T01:36:12;100084.03;;;20.76;47.96
48872;BME280;36154;51.674;7.824;2023-04-22T01:38:38;100084.88;;;20.76;48.13
48872;BME280;36154;51.674;7.824;2023-04-22T01:41:03;100088.31;;;20.77;48.08
48872;BME280;36154;51.674;7.824;2023-04-22T01:43:29;100087.47;;;20.76;48.13
48872;BME280;36154;51.674;7.824;2023-04-22T01:45:55;100086.63;;;20.76;48.04
48872;BME280;36154;51.674;7.824;2023-04-22T01:48:21;100081.56;;;20.73;48.09
48872;BME280;36154;51.674;7.824;2023-04-22T01:50:46;100090.06;;;20.76;47.98
48872;BME280;36154;51.674;7.824;2023-04-22T01:53:11;100086.63;;;20.76;47.96
48872;BME280;36154;51.674;7.824;2023-04-22T01:55:37;100084.94;;;20.75;48.05
48872;BME280;36154;51.674;7.824;2023-04-22T01:58:03;100092.69;;;20.75;48.09
48872;BME280;36154;51.674;7.824;2023-04-22T02:00:28;100090.06;;;20.76;48.08
48872;BME280;36154;51.674;7.824;2023-04-22T02:02:56;100089.28;;;20.74;47.94
48872;BME280;36154;51.674;7.824;2023-04-22T02:05:21;100088.44;;;20.74;47.94
48872;BME280;36154;51.674;7.824;2023-04-22T02:07:51;100086.69;;;20.74;48.04
48872;BME280;36154;51.674;7.824;2023-04-22T02:10:16;100097.88;;;20.75;48.02
48872;BME280;36154;51.674;7.824;2023-04-22T02:12:41;100098.81;;;20.74;47.97
48872;BME280;36154;51.674;7.824;2023-04-22T02:15:07;100088.38;;;20.75;48.12
48872;BME280;36154;51.674;7.824;2023-04-22T02:17:32;100090.97;;;20.75;47.98
48872;BME280;36154;51.674;7.824;2023-04-22T02:19:58;100096.22;;;20.74;47.98
48872;BME280;36154;51.674;7.824;2023-04-22T02:22:23;100098.75;;;20.75;48.06
48872;BME280;36154;51.674;7.824;2023-04-22T02:24:48;100091.03;;;20.74;48.07
48872;BME280;36154;51.674;7.824;2023-04-22T02:27:14;100097.00;;;20.76;47.91
48872;BME280;36154;51.674;7.824;2023-04-22T02:29:39;100093.63;;;20.74;47.92
48872;BME280;36154;51.674;7.824;2023-04-22T02:32:05;100092.69;;;20.75;47.75
48872;BME280;36154;51.674;7.824;2023-04-22T02:34:31;100087.53;;;20.75;48.04
48872;BME280;36154;51.674;7.824;2023-04-22T02:36:56;100090.16;;;20.73;48.13
48872;BME280;36154;51.674;7.824;2023-04-22T02:39:22;100095.28;;;20.75;47.98
48872;BME280;36154;51.674;7.824;2023-04-22T02:41:47;100091.09;;;20.72;48.01
48872;BME280;36154;51.674;7.824;2023-04-22T02:44:12;100088.44;;;20.74;48.00
48872;BME280;36154;51.674;7.824;2023-04-22T02:46:40;100096.22;;;20.74;48.01
48872;BME280;36154;51.674;7.824;2023-04-22T02:49:05;100087.59;;;20.73;48.01
48872;BME280;36154;51.674;7.824;2023-04-22T02:51:31;100081.56;;;20.73;48.13
48872;BME280;36154;51.674;7.824;2023-04-22T02:53:57;100085.84;;;20.74;48.00
48872;BME280;36154;51.674;7.824;2023-04-22T02:56:22;100096.22;;;20.74;47.93
48872;BME280;36154;51.674;7.824;2023-04-22T02:58:47;100089.34;;;20.73;48.01
48872;BME280;36154;51.674;7.824;2023-04-22T03:01:13;100095.34;;;20.73;47.83
48872;BME280;36154;51.674;7.824;2023-04-22T03:03:38;100095.34;;;20.73;48.04
48872;BME280;36154;51.674;7.824;2023-04-22T03:06:03;100094.50;;;20.73;48.10
48872;BME280;36154;51.674;7.824;2023-04-22T03:08:29;100078.97;;;20.73;48.01
48872;BME280;36154;51.674;7.824;2023-04-22T03:10:54;100073.81;;;20.73;48.08
48872;BME280;36154;51.674;7.824;2023-04-22T03:13:19;100077.28;;;20.72;48.04
48872;BME280;36154;51.674;7.824;2023-04-22T03:15:45;100070.44;;;20.71;48.00
48872;BME280;36154;51.674;7.824;2023-04-22T03:18:10;100073.81;;;20.73;47.91
48872;BME280;36154;51.674;7.824;2023-04-22T03:20:35;100074.63;;;20.73;47.95
48872;BME280;36154;51.674;7.824;2023-04-22T03:23:01;100073.81;;;20.73;47.96
48872;BME280;36154;51.674;7.824;2023-04-22T03:25:26;100072.97;;;20.72;47.96
48872;BME280;36154;51.674;7.824;2023-04-22T03:27:51;100067.78;;;20.72;47.96
48872;BME280;36154;51.674;7.824;2023-04-22T03:30:17;100062.66;;;20.71;47.87
48872;BME280;36154;51.674;7.824;2023-04-22T03:32:42;100063.50;;;20.71;47.97
48872;BME280;36154;51.674;7.824;2023-04-22T03:35:07;100062.66;;;20.71;47.98
48872;BME280;36154;51.674;7.824;2023-04-22T03:37:33;100066.94;;;20.72;48.09
48872;BME280;36154;51.674;7.824;2023-04-22T03:39:58;100061.75;;;20.72;47.96
48872;BME280;36154;51.674;7.824;2023-04-22T03:42:23;100061.75;;;20.72;47.89
48872;BME280;36154;51.674;7.824;2023-04-22T03:44:48;100057.44;;;20.72;47.99
48872;BME280;36154;51.674;7.824;2023-04-22T03:47:14;100049.72;;;20.71;47.85
48872;BME280;36154;51.674;7.824;2023-04-22T03:49:39;100055.75;;;20.71;48.02
48872;BME280;36154;51.674;7.824;2023-04-22T03:52:04;100055.75;;;20.71;47.86
48872;BME280;36154;51.674;7.824;2023-04-22T03:54:30;100052.31;;;20.71;47.90
48872;BME280;36154;51.674;7.824;2023-04-22T03:56:55;100039.38;;;20.71;48.03
48872;BME280;36154;51.674;7.824;2023-04-22T03:59:20;100039.38;;;20.71;48.00
48872;BME280;36154;51.674;7.824;2023-04-22T04:01:46;100035.09;;;20.70;47.98
48872;BME280;36154;51.674;7.824;2023-04-22T04:04:11;100038.50;;;20.70;48.07
48872;BME280;36154;51.674;7.824;2023-04-22T04:06:37;100040.25;;;20.70;48.10
48872;BME280;36154;51.674;7.824;2023-04-22T04:09:02;100034.19;;;20.71;48.08
48872;BME280;36154;51.674;7.824;2023-04-22T04:11:28;100024.72;;;20.70;47.79
48872;BME280;36154;51.674;7.824;2023-04-22T04:13:53;100030.69;;;20.72;47.80
48872;BME280;36154;51.674;7.824;2023-04-22T04:16:18;100041.03;;;20.72;48.04
48872;BME280;36154;51.674;7.824;2023-04-22T04:18:44;100039.38;;;20.71;48.00
48872;BME280;36154;51.674;7.824;2023-04-22T04:21:09;100037.63;;;20.71;47.87
48872;BME280;36154;51.674;7.824;2023-04-22T04:23:34;100035.88;;;20.72;47.92
48872;BME280;36154;51.674;7.824;2023-04-22T04:26:00;100032.44;;;20.71;48.04
48872;BME280;36154;51.674;7.824;2023-04-22T04:28:27;100043.63;;;20.72;47.80
48872;BME280;36154;51.674;7.824;2023-04-22T04:30:56;100039.31;;;20.72;48.01
48872;BME280;36154;51.674;7.824;2023-04-22T04:33:21;100028.09;;;20.72;47.87
48872;BME280;36154;51.674;7.824;2023-04-22T04:35:47;100033.28;;;20.72;47.86
48872;BME280;36154;51.674;7.824;2023-04-22T04:38:12;100026.38;;;20.72;47.92
48872;BME280;36154;51.674;7.824;2023-04-22T04:40:38;100022.97;;;20.70;47.98
48872;BME280;36154;51.674;7.824;2023-04-22T04:43:04;100017.75;;;20.72;48.04
48872;BME280;36154;51.674;7.824;2023-04-22T04:45:33;100018.66;;;20.71;48.10
48872;BME280;36154;51.674;7.824;2023-04-22T04:47:58;100025.50;;;20.72;47.94
48872;BME280;36154;51.674;7.824;2023-04-22T04:50:24;100023.84;;;20.71;47.95
48872;BME280;36154;51.674;7.824;2023-04-22T04:52:52;100018.66;;;20.71;47.78
48872;BME280;36154;51.674;7.824;2023-04-22T04:55:17;100018.66;;;20.71;47.78
48872;BME280;36154;51.674;7.824;2023-04-22T04:57:44;100010.91;;;20.71;47.94
48872;BME280;36154;51.674;7.824;2023-04-22T05:00:09;100012.56;;;20.72;47.94
48872;BME280;36154;51.674;7.824;2023-04-22T05:02:35;100007.44;;;20.70;47.75
48872;BME280;36154;51.674;7.824;2023-04-22T05:05:00;100008.31;;;20.71;47.79
48872;BME280;36154;51.674;7.824;2023-04-22T05:07:26;100003.97;;;20.71;47.88
48872;BME280;36154;51.674;7.824;2023-04-22T05:09:51;100014.31;;;20.71;47.78
48872;BME280;36154;51.674;7.824;2023-04-22T05:12:16;100007.44;;;20.70;47.83
48872;BME280;36154;51.674;7.824;2023-04-22T05:14:41;100005.72;;;20.71;47.83
48872;BME280;36154;51.674;7.824;2023-04-22T05:17:07;100013.50;;;20.71;47.97
48872;BME280;36154;51.674;7.824;2023-04-22T05:19:33;100009.19;;;20.70;47.91
48872;BME280;36154;51.674;7.824;2023-04-22T05:21:58;99996.25;;;20.70;47.73
48872;BME280;36154;51.674;7.824;2023-04-22T05:24:23;100003.13;;;20.71;47.87
48872;BME280;36154;51.674;7.824;2023-04-22T05:26:49;100004.94;;;20.68;47.80
48872;BME280;36154;51.674;7.824;2023-04-22T05:29:15;100015.22;;;20.70;47.79
48872;BME280;36154;51.674;7.824;2023-04-22T05:31:40;100013.50;;;20.71;47.85
48872;BME280;36154;51.674;7.824;2023-04-22T05:34:05;100020.38;;;20.70;47.81
48872;BME280;36154;51.674;7.824;2023-04-22T05:36:30;100013.50;;;20.71;47.86
48872;BME280;36154;51.674;7.824;2023-04-22T05:38:56;100008.44;;;20.67;48.06
48872;BME280;36154;51.674;7.824;2023-04-22T05:41:21;100014.44;;;20.68;47.80
48872;BME280;36154;51.674;7.824;2023-04-22T05:43:46;100016.13;;;20.69;47.75
48872;BME280;36154;51.674;7.824;2023-04-22T05:46:12;100012.81;;;20.65;47.50
48872;BME280;36154;51.674;7.824;2023-04-22T05:48:37;100016.97;;;20.70;47.53
48872;BME280;36154;51.674;7.824;2023-04-22T05:51:03;100020.38;;;20.70;47.82
48872;BME280;36154;51.674;7.824;2023-04-22T05:53:28;100016.97;;;20.70;47.76
48872;BME280;36154;51.674;7.824;2023-04-22T05:55:54;100009.19;;;20.70;47.80
48872;BME280;36154;51.674;7.824;2023-04-22T05:58:19;100004.94;;;20.68;47.76
48872;BME280;36154;51.674;7.824;2023-04-22T06:00:45;100001.44;;;20.70;47.64
48872;BME280;36154;51.674;7.824;2023-04-22T06:03:10;100000.59;;;20.69;47.70
48872;BME280;36154;51.674;7.824;2023-04-22T06:05:36;100008.31;;;20.71;47.70
48872;BME280;36154;51.674;7.824;2023-04-22T06:08:01;100004.84;;;20.70;47.80
48872;BME280;36154;51.674;7.824;2023-04-22T06:10:26;100001.44;;;20.70;47.87
48872;BME280;36154;51.674;7.824;2023-04-22T06:12:51;100002.28;;;20.70;47.68
48872;BME280;36154;51.674;7.824;2023-04-22T06:15:17;100001.44;;;20.70;47.81
48872;BME280;36154;51.674;7.824;2023-04-22T06:17:42;99997.97;;;20.71;47.75
48872;BME280;36154;51.674;7.824;2023-04-22T06:20:09;100004.03;;;20.70;47.62
48872;BME280;36154;51.674;7.824;2023-04-22T06:22:35;99999.69;;;20.70;47.85
48872;BME280;36154;51.674;7.824;2023-04-22T06:25:00;100005.72;;;20.71;47.81
48872;BME280;36154;51.674;7.824;2023-04-22T06:27:26;100004.84;;;20.70;47.09
48872;BME280;36154;51.674;7.824;2023-04-22T06:29:51;99999.78;;;20.68;47.72
48872;BME280;36154;51.674;7.824;2023-04-22T06:32:16;99999.69;;;20.70;47.71
48872;BME280;36154;51.674;7.824;2023-04-22T06:34:41;99993.66;;;20.70;47.76
48872;BME280;36154;51.674;7.824;2023-04-22T06:37:08;99998.84;;;20.70;47.57
48872;BME280;36154;51.674;7.824;2023-04-22T06:39:33;99995.44;;;20.69;47.67
48872;BME280;36154;51.674;7.824;2023-04-22T06:41:58;99993.66;;;20.70;47.76
48872;BME280;36154;51.674;7.824;2023-04-22T06:44:25;99991.91;;;20.70;47.68
48872;BME280;36154;51.674;7.824;2023-04-22T06:46:51;99995.38;;;20.71;47.57
48872;BME280;36154;51.674;7.824;2023-04-22T06:49:16;99992.78;;;20.71;47.78
48872;BME280;36154;51.674;7.824;2023-04-22T06:51:41;100003.13;;;20.71;47.78
48872;BME280;36154;51.674;7.824;2023-04-22T06:54:09;100001.44;;;20.70;47.66
48872;BME280;36154;51.674;7.824;2023-04-22T06:56:34;99997.97;;;20.71;47.63
48872;BME280;36154;51.674;7.824;2023-04-22T06:59:00;99997.97;;;20.71;47.67
48872;BME280;36154;51.674;7.824;2023-04-22T07:01:25;99992.78;;;20.71;47.72
48872;BME280;36154;51.674;7.824;2023-04-22T07:03:50;99991.09;;;20.70;47.72
48872;BME280;36154;51.674;7.824;2023-04-22T07:06:15;99994.44;;;20.72;47.71
48872;BME280;36154;51.674;7.824;2023-04-22T07:08:41;99994.44;;;20.72;47.61
48872;BME280;36154;51.674;7.824;2023-04-22T07:11:07;99999.63;;;20.72;47.70
48872;BME280;36154;51.674;7.824;2023-04-22T07:13:33;99995.31;;;20.72;47.61
48872;BME280;36154;51.674;7.824;2023-04-22T07:15:59;99993.56;;;20.73;47.76
48872;BME280;36154;51.674;7.824;2023-04-22T07:18:25;99989.28;;;20.72;47.64
48872;BME280;36154;51.674;7.824;2023-04-22T07:20:50;99987.59;;;20.71;47.73
48872;BME280;36154;51.674;7.824;2023-04-22T07:23:15;99982.44;;;20.71;47.83
48872;BME280;36154;51.674;7.824;2023-04-22T07:25:41;99986.69;;;20.72;47.77
48872;BME280;36154;51.674;7.824;2023-04-22T07:28:06;99975.44;;;20.73;47.84
48872;BME280;36154;51.674;7.824;2023-04-22T07:30:31;99975.44;;;20.73;47.77
48872;BME280;36154;51.674;7.824;2023-04-22T07:32:57;99981.44;;;20.73;47.76
48872;BME280;36154;51.674;7.824;2023-04-22T07:35:22;99981.44;;;20.73;47.77
48872;BME280;36154;51.674;7.824;2023-04-22T07:37:47;99980.63;;;20.73;47.57
48872;BME280;36154;51.674;7.824;2023-04-22T07:40:13;99988.38;;;20.73;47.68
48872;BME280;36154;51.674;7.824;2023-04-22T07:42:38;99992.59;;;20.75;47.75
48872;BME280;36154;51.674;7.824;2023-04-22T07:45:05;99987.50;;;20.74;47.63
48872;BME280;36154;51.674;7.824;2023-04-22T07:47:30;99986.56;;;20.75;47.67
48872;BME280;36154;51.674;7.824;2023-04-22T07:49:56;99992.00;;;20.68;47.37
48872;BME280;36154;51.674;7.824;2023-04-22T07:52:21;99995.53;;;20.66;47.13
48872;BME280;36154;51.674;7.824;2023-04-22T07:54:46;99987.25;;;20.58;46.78
48872;BME280;36154;51.674;7.824;2023-04-22T07:57:12;99987.47;;;20.52;46.73
48872;BME280;36154;51.674;7.824;2023-04-22T07:59:37;99977.31;;;20.47;46.50
48872;BME280;36154;51.674;7.824;2023-04-22T08:02:03;99978.41;;;20.40;46.34
48872;BME280;36154;51.674;7.824;2023-04-22T08:04:28;99972.44;;;20.38;46.17
48872;BME280;36154;51.674;7.824;2023-04-22T08:06:53;99971.75;;;20.34;46.18
48872;BME280;36154;51.674;7.824;2023-04-22T08:09:20;99977.06;;;20.29;46.41
48872;BME280;36154;51.674;7.824;2023-04-22T08:11:45;99960.00;;;20.25;46.52
48872;BME280;36154;51.674;7.824;2023-04-22T08:14:10;99959.34;;;20.20;46.73
48872;BME280;36154;51.674;7.824;2023-04-22T08:16:38;99966.28;;;20.18;46.74
48872;BME280;36154;51.674;7.824;2023-04-22T08:19:03;99956.97;;;20.14;46.89
48872;BME280;36154;51.674;7.824;2023-04-22T08:21:28;99957.91;;;20.11;46.87
48872;BME280;36154;51.674;7.824;2023-04-22T08:23:56;99960.50;;;20.11;46.92
48872;BME280;36154;51.674;7.824;2023-04-22T08:26:21;99957.19;;;20.08;46.93
48872;BME280;36154;51.674;7.824;2023-04-22T08:28:46;99948.59;;;20.07;47.20
48872;BME280;36154;51.674;7.824;2023-04-22T08:31:12;99946.91;;;20.06;47.21
48872;BME280;36154;51.674;7.824;2023-04-22T08:33:39;99950.38;;;20.07;47.42
48872;BME280;36154;51.674;7.824;2023-04-22T08:36:04;99946.03;;;20.07;47.24
48872;BME280;36154;51.674;7.824;2023-04-22T08:38:30;99950.25;;;20.10;47.30
48872;BME280;36154;51.674;7.824;2023-04-22T08:40:56;99941.56;;;20.11;47.10
48872;BME280;36154;51.674;7.824;2023-04-22T08:43:24;99944.94;;;20.13;46.48
48872;BME280;36154;51.674;7.824;2023-04-22T08:45:51;99944.94;;;20.13;45.62
48872;BME280;36154;51.674;7.824;2023-04-22T08:48:17;99931.13;;;20.14;45.16
48872;BME280;36154;51.674;7.824;2023-04-22T08:50:43;99940.50;;;20.17;44.98
48872;BME280;36154;51.674;7.824;2023-04-22T08:53:10;99927.50;;;20.18;44.48
48872;BME280;36154;51.674;7.824;2023-04-22T08:55:36;99932.66;;;20.18;44.12
48872;BME280;36154;51.674;7.824;2023-04-22T08:58:03;99931.72;;;20.21;44.18
48872;BME280;36154;51.674;7.824;2023-04-22T09:00:31;99928.97;;;20.25;44.42
48872;BME280;36154;51.674;7.824;2023-04-22T09:02:57;99928.84;;;20.28;44.54
48872;BME280;36154;51.674;7.824;2023-04-22T09:05:25;99925.34;;;20.29;44.59
48872;BME280;36154;51.674;7.824;2023-04-22T09:07:52;99922.63;;;20.33;44.94
48872;BME280;36154;51.674;7.824;2023-04-22T09:10:18;99923.41;;;20.35;44.84
48872;BME280;36154;51.674;7.824;2023-04-22T09:12:45;99923.31;;;20.38;44.84
48872;BME280;36154;51.674;7.824;2023-04-22T09:15:13;99918.06;;;20.39;44.94
48872;BME280;36154;51.674;7.824;2023-04-22T09:17:39;99913.72;;;20.40;45.14
48872;BME280;36154;51.674;7.824;2023-04-22T09:20:06;99920.47;;;20.44;45.09
48872;BME280;36154;51.674;7.824;2023-04-22T09:25:26;99907.47;;;20.47;45.07
48872;BME280;36154;51.674;7.824;2023-04-22T09:27:56;99908.28;;;20.47;45.21
48872;BME280;36154;51.674;7.824;2023-04-22T09:30:32;99896.13;;;20.49;45.23
48872;BME280;36154;51.674;7.824;2023-04-22T09:33:00;99896.97;;;20.50;45.24
48872;BME280;36154;51.674;7.824;2023-04-22T09:37:52;99896.84;;;20.53;45.49
48872;BME280;36154;51.674;7.824;2023-04-22T09:40:18;99904.53;;;20.55;45.49
48872;BME280;36154;51.674;7.824;2023-04-22T09:42:53;99897.56;;;20.57;45.48
48872;BME280;36154;51.674;7.824;2023-04-22T09:45:34;99898.41;;;20.57;45.49
48872;BME280;36154;51.674;7.824;2023-04-22T09:48:02;99900.13;;;20.57;45.62
48872;BME280;36154;51.674;7.824;2023-04-22T09:50:30;99904.41;;;20.58;45.57
48872;BME280;36154;51.674;7.824;2023-04-22T09:53:02;99894.91;;;20.58;45.62
48872;BME280;36154;51.674;7.824;2023-04-22T09:55:30;99898.28;;;20.60;45.90
48872;BME280;36154;51.674;7.824;2023-04-22T09:57:56;99887.94;;;20.60;45.76
48872;BME280;36154;51.674;7.824;2023-04-22T10:00:24;99884.50;;;20.60;45.75
48872;BME280;36154;51.674;7.824;2023-04-22T10:02:51;99887.94;;;20.60;46.04
48872;BME280;36154;51.674;7.824;2023-04-22T10:05:16;99893.06;;;20.62;45.88
48872;BME280;36154;51.674;7.824;2023-04-22T10:07:43;99884.44;;;20.61;45.77
48872;BME280;36154;51.674;7.824;2023-04-22T10:10:08;99872.25;;;20.63;45.92
48872;BME280;36154;51.674;7.824;2023-04-22T10:12:35;99874.94;;;20.62;45.90
48872;BME280;36154;51.674;7.824;2023-04-22T10:15:01;99869.66;;;20.63;46.02
48872;BME280;36154;51.674;7.824;2023-04-22T10:17:29;99873.13;;;20.64;45.89
48872;BME280;36154;51.674;7.824;2023-04-22T10:19:56;99874.78;;;20.65;45.94
48872;BME280;36154;51.674;7.824;2023-04-22T10:22:22;99873.91;;;20.66;45.96
48872;BME280;36154;51.674;7.824;2023-04-22T10:24:48;99860.94;;;20.66;45.99
48872;BME280;36154;51.674;7.824;2023-04-22T10:27:20;99863.47;;;20.67;46.13
48872;BME280;36154;51.674;7.824;2023-04-22T10:29:45;99856.47;;;20.70;46.01
48872;BME280;36154;51.674;7.824;2023-04-22T10:34:43;99846.78;;;20.75;45.82
48872;BME280;36154;51.674;7.824;2023-04-22T10:37:11;99845.88;;;20.76;45.64
48872;BME280;36154;51.674;7.824;2023-04-22T10:39:38;99845.88;;;20.76;45.78
48872;BME280;36154;51.674;7.824;2023-04-22T10:42:11;99839.78;;;20.77;45.75
48872;BME280;36154;51.674;7.824;2023-04-22T10:44:47;99838.88;;;20.78;45.80
48872;BME280;36154;51.674;7.824;2023-04-22T10:47:28;99833.72;;;20.78;45.76
48872;BME280;36154;51.674;7.824;2023-04-22T10:52:44;99833.66;;;20.79;45.74
48872;BME280;36154;51.674;7.824;2023-04-22T10:55:10;99837.94;;;20.80;45.63
48872;BME280;36154;51.674;7.824;2023-04-22T10:57:38;99830.06;;;20.82;45.86
48872;BME280;36154;51.674;7.824;2023-04-22T11:00:25;99824.88;;;20.82;45.89
48872;BME280;36154;51.674;7.824;2023-04-22T11:03:09;99831.75;;;20.83;45.90
48872;BME280;36154;51.674;7.824;2023-04-22T11:05:36;99828.28;;;20.84;45.88
48872;BME280;36154;51.674;7.824;2023-04-22T11:08:24;99819.59;;;20.85;45.95
48872;BME280;36154;51.674;7.824;2023-04-22T11:10:49;99826.47;;;20.86;46.09
48872;BME280;36154;51.674;7.824;2023-04-22T11:13:17;99817.78;;;20.87;46.02
48872;BME280;36154;51.674;7.824;2023-04-22T11:15:46;99815.97;;;20.89;46.32
48872;BME280;36154;51.674;7.824;2023-04-22T11:18:23;99812.47;;;20.90;45.98
48872;BME280;36154;51.674;7.824;2023-04-22T11:20:49;99807.22;;;20.92;46.05
48872;BME280;36154;51.674;7.824;2023-04-22T11:23:24;99809.75;;;20.93;46.28
48872;BME280;36154;51.674;7.824;2023-04-22T11:25:57;99805.31;;;20.95;46.14
48872;BME280;36154;51.674;7.824;2023-04-22T11:28:23;99803.53;;;20.97;46.36
48872;BME280;36154;51.674;7.824;2023-04-22T11:30:49;99797.44;;;20.98;46.26
48872;BME280;36154;51.674;7.824;2023-04-22T11:33:16;99802.47;;;21.01;46.62
48872;BME280;36154;51.674;7.824;2023-04-22T11:35:41;99795.53;;;21.02;46.83
48872;BME280;36154;51.674;7.824;2023-04-22T11:38:07;99799.75;;;21.04;47.02
48872;BME280;36154;51.674;7.824;2023-04-22T11:40:41;99795.41;;;21.05;47.26
48872;BME280;36154;51.674;7.824;2023-04-22T11:43:08;99802.22;;;21.08;47.37
48872;BME280;36154;51.674;7.824;2023-04-22T11:45:35;99797.81;;;21.10;47.25
48872;BME280;36154;51.674;7.824;2023-04-22T11:48:02;99796.91;;;21.11;47.17
48872;BME280;36154;51.674;7.824;2023-04-22T11:50:30;99798.56;;;21.12;47.33
48872;BME280;36154;51.674;7.824;2023-04-22T11:55:41;99810.50;;;21.16;46.96
48872;BME280;36154;51.674;7.824;2023-04-22T11:58:10;99813.16;;;21.14;46.97
48872;BME280;36154;51.674;7.824;2023-04-22T12:00:38;99814.81;;;21.15;46.91
48872;BME280;36154;51.674;7.824;2023-04-22T12:03:07;99823.44;;;21.16;46.80
48872;BME280;36154;51.674;7.824;2023-04-22T12:05:39;99810.56;;;21.14;46.97
48872;BME280;36154;51.674;7.824;2023-04-22T12:08:13;99814.91;;;21.14;46.89
48872;BME280;36154;51.674;7.824;2023-04-22T12:10:40;99813.22;;;21.13;47.00
48872;BME280;36154;51.674;7.824;2023-04-22T12:13:07;99812.31;;;21.14;46.87
48872;BME280;36154;51.674;7.824;2023-04-22T12:15:42;99814.91;;;21.14;47.00
48872;BME280;36154;51.674;7.824;2023-04-22T12:18:07;99814.03;;;21.13;46.95
48872;BME280;36154;51.674;7.824;2023-04-22T12:20:34;99799.38;;;21.14;46.94
48872;BME280;36154;51.674;7.824;2023-04-22T12:22:59;99805.38;;;21.14;47.01
48872;BME280;36154;51.674;7.824;2023-04-22T12:25:25;99803.69;;;21.13;46.92
48872;BME280;36154;51.674;7.824;2023-04-22T12:27:51;99806.22;;;21.15;46.90
48872;BME280;36154;51.674;7.824;2023-04-22T12:30:16;99807.03;;;21.15;47.00
48872;BME280;36154;51.674;7.824;2023-04-22T12:32:41;99811.38;;;21.15;46.86
48872;BME280;36154;51.674;7.824;2023-04-22T12:35:07;99812.22;;;21.15;46.94
48872;BME280;36154;51.674;7.824;2023-04-22T12:37:32;99810.50;;;21.16;46.79
48872;BME280;36154;51.674;7.824;2023-04-22T12:39:58;99801.84;;;21.15;46.88
48872;BME280;36154;51.674;7.824;2023-04-22T12:42:23;99807.91;;;21.16;46.82
48872;BME280;36154;51.674;7.824;2023-04-22T12:44:48;99808.78;;;21.15;46.81
48872;BME280;36154;51.674;7.824;2023-04-22T12:47:13;99800.13;;;21.16;46.76
48872;BME280;36154;51.674;7.824;2023-04-22T12:49:42;99804.53;;;21.14;46.65
48872;BME280;36154;51.674;7.824;2023-04-22T12:52:08;99799.25;;;21.15;46.81
48872;BME280;36154;51.674;7.824;2023-04-22T12:54:33;99800.19;;;21.14;46.86
48872;BME280;36154;51.674;7.824;2023-04-22T12:56:59;99801.03;;;21.15;46.74
48872;BME280;36154;51.674;7.824;2023-04-22T12:59:26;99798.44;;;21.15;46.68
48872;BME280;36154;51.674;7.824;2023-04-22T13:01:51;99807.91;;;21.16;47.30
48872;BME280;36154;51.674;7.824;2023-04-22T13:04:19;99802.72;;;21.16;46.72